createdAt,value
2017-11-05T00:01:42.298Z,100286.26
2017-11-05T00:04:09.893Z,100285.52
2017-11-05T00:06:37.517Z,100285.86
2017-11-05T00:09:05.139Z,100286.23
2017-11-05T00:11:32.750Z,100282.34
2017-11-05T00:14:00.421Z,100276.45
2017-11-05T00:16:28.327Z,100283.90
2017-11-05T00:18:55.928Z,100277.05
2017-11-05T00:21:23.552Z,100274.63
2017-11-05T00:23:51.406Z,100273.97
2017-11-05T00:26:19.057Z,100273.83
2017-11-05T00:28:46.943Z,100281.83
2017-11-05T00:31:14.549Z,100280.09
2017-11-05T00:33:42.273Z,100283.72
2017-11-05T00:36:09.875Z,100283.33
2017-11-05T00:38:37.508Z,100278.31
2017-11-05T00:41:05.140Z,100283.34
2017-11-05T00:43:32.819Z,100276.67
2017-11-05T00:46:00.485Z,100280.99
2017-11-05T00:48:28.128Z,100280.41
2017-11-05T00:50:55.730Z,100274.04
2017-11-05T00:53:23.671Z,100278.95
2017-11-05T00:55:51.269Z,100281.21
2017-11-05T00:58:18.892Z,100280.47
2017-11-05T01:00:46.534Z,100274.05
2017-11-05T01:03:14.151Z,100273.17
2017-11-05T01:05:41.780Z,100271.01
2017-11-05T01:08:09.403Z,100272.07
2017-11-05T01:10:37.003Z,100270.17
2017-11-05T01:13:04.659Z,100268.75
2017-11-05T01:15:32.308Z,100264.02
2017-11-05T01:17:59.953Z,100262.42
2017-11-05T01:20:27.557Z,100261.08
2017-11-05T01:22:55.155Z,100258.74
2017-11-05T01:25:22.783Z,100259.57
2017-11-05T01:27:50.383Z,100261.27
2017-11-05T01:30:18.015Z,100266.09
2017-11-05T01:32:45.661Z,100263.60
2017-11-05T01:35:13.271Z,100261.92
2017-11-05T01:37:41.791Z,100255.67
2017-11-05T01:40:09.678Z,100256.77
2017-11-05T01:42:37.353Z,100254.11
2017-11-05T01:45:04.988Z,100246.76
2017-11-05T01:47:32.593Z,100244.45
2017-11-05T01:50:00.222Z,100251.03
2017-11-05T01:52:27.808Z,100247.45
2017-11-05T01:54:55.449Z,100249.77
2017-11-05T01:57:23.057Z,100245.45
2017-11-05T01:59:50.670Z,100245.77
2017-11-05T02:02:18.334Z,100243.34
2017-11-05T02:04:45.989Z,100244.52
2017-11-05T02:07:14.515Z,100239.29
2017-11-05T02:09:42.133Z,100243.70
2017-11-05T02:12:09.728Z,100233.72
2017-11-05T02:14:37.679Z,100237.54
2017-11-05T02:17:05.545Z,100234.46
2017-11-05T02:19:33.187Z,100229.55
2017-11-05T02:22:00.773Z,100222.80
2017-11-05T02:24:28.375Z,100231.23
2017-11-05T02:26:56.066Z,100220.14
2017-11-05T02:29:23.659Z,100218.00
2017-11-05T02:31:51.290Z,100219.98
2017-11-05T02:34:18.946Z,100220.08
2017-11-05T02:36:46.611Z,100224.78
2017-11-05T02:39:14.235Z,100225.50
2017-11-05T02:41:41.835Z,100227.98
2017-11-05T02:44:09.476Z,100222.48
2017-11-05T02:46:37.076Z,100221.73
2017-11-05T02:49:04.668Z,100223.31
2017-11-05T02:51:32.323Z,100227.48
2017-11-05T02:53:59.912Z,100225.14
2017-11-05T02:56:27.594Z,100222.73
2017-11-05T02:58:55.210Z,100225.91
2017-11-05T03:01:22.800Z,100225.13
2017-11-05T03:03:50.432Z,100225.38
2017-11-05T03:06:18.111Z,100225.70
2017-11-05T03:08:45.744Z,100215.86
2017-11-05T03:11:13.349Z,100222.13
2017-11-05T03:13:40.941Z,100211.16
2017-11-05T03:16:08.585Z,100208.47
2017-11-05T03:18:36.251Z,100206.80
2017-11-05T03:21:03.905Z,100211.98
2017-11-05T03:23:31.509Z,100209.06
2017-11-05T03:25:59.116Z,100207.53
2017-11-05T03:28:27.066Z,100207.23
2017-11-05T03:30:54.712Z,100208.85
2017-11-05T03:33:22.410Z,100205.02
2017-11-05T03:35:50.379Z,100203.36
2017-11-05T03:38:17.989Z,100210.80
2017-11-05T03:40:45.629Z,100211.22
2017-11-05T03:43:13.549Z,100207.72
2017-11-05T03:45:41.200Z,100212.49
2017-11-05T03:48:08.826Z,100210.15
2017-11-05T03:50:36.754Z,100200.77
2017-11-05T03:53:04.375Z,100198.33
2017-11-05T03:55:32.025Z,100200.13
2017-11-05T03:57:59.685Z,100202.59
2017-11-05T04:00:27.606Z,100197.44
2017-11-05T04:02:55.213Z,100204.66
2017-11-05T04:05:22.850Z,100197.69
2017-11-05T04:07:50.490Z,100200.22
2017-11-05T04:10:18.125Z,100198.10
2017-11-05T04:12:45.739Z,100189.83
2017-11-05T04:15:13.353Z,100196.86
2017-11-05T04:17:40.985Z,100201.52
2017-11-05T04:20:08.602Z,100192.03
2017-11-05T04:22:36.259Z,100192.78
2017-11-05T04:25:03.857Z,100193.08
2017-11-05T04:27:31.445Z,100196.14
2017-11-05T04:29:59.088Z,100194.57
2017-11-05T04:32:26.720Z,100191.26
2017-11-05T04:34:54.368Z,100198.55
2017-11-05T04:37:22.053Z,100204.09
2017-11-05T04:39:49.948Z,100201.93
2017-11-05T04:42:17.584Z,100191.89
2017-11-05T04:44:45.173Z,100195.25
2017-11-05T04:47:12.826Z,100187.17
2017-11-05T04:49:40.424Z,100186.27
2017-11-05T04:52:08.031Z,100177.98
2017-11-05T04:54:35.706Z,100181.36
2017-11-05T04:57:03.350Z,100186.36
2017-11-05T04:59:31.006Z,100182.90
2017-11-05T05:01:58.647Z,100181.62
2017-11-05T05:04:26.284Z,100182.55
2017-11-05T05:06:53.922Z,100174.55
2017-11-05T05:09:21.560Z,100178.41
2017-11-05T05:11:49.632Z,100174.88
2017-11-05T05:14:17.237Z,100162.52
2017-11-05T05:16:45.028Z,100158.41
2017-11-05T05:19:12.650Z,100164.35
2017-11-05T05:21:40.316Z,100170.33
2017-11-05T05:24:07.987Z,100166.24
2017-11-05T05:26:35.608Z,100166.72
2017-11-05T05:29:03.236Z,100169.09
2017-11-05T05:31:30.875Z,100167.97
2017-11-05T05:33:58.490Z,100161.39
2017-11-05T05:36:26.156Z,100156.07
2017-11-05T05:38:53.751Z,100160.09
2017-11-05T05:41:21.372Z,100156.92
2017-11-05T05:43:49.028Z,100160.83
2017-11-05T05:46:16.637Z,100158.91
2017-11-05T05:48:44.300Z,100166.72
2017-11-05T05:51:11.932Z,100159.00
2017-11-05T05:53:39.539Z,100156.92
2017-11-05T05:56:07.169Z,100148.02
2017-11-05T05:58:34.820Z,100147.05
2017-11-05T06:01:02.519Z,100159.15
2017-11-05T06:03:30.460Z,100158.41
2017-11-05T06:05:58.912Z,100154.91
2017-11-05T06:08:26.528Z,100160.59
2017-11-05T06:10:54.124Z,100157.98
2017-11-05T06:13:21.768Z,100158.58
2017-11-05T06:15:49.695Z,100164.47
2017-11-05T06:18:17.348Z,100166.80
2017-11-05T06:20:44.977Z,100164.73
2017-11-05T06:23:12.607Z,100158.31
2017-11-05T06:25:40.651Z,100158.73
2017-11-05T06:28:08.249Z,100158.41
2017-11-05T06:30:35.876Z,100162.39
2017-11-05T06:33:03.498Z,100172.95
2017-11-05T06:35:31.146Z,100172.06
2017-11-05T06:37:58.798Z,100169.79
2017-11-05T06:40:26.730Z,100171.20
2017-11-05T06:42:54.363Z,100179.40
2017-11-05T06:45:22.157Z,100179.61
2017-11-05T06:47:49.756Z,100173.55
2017-11-05T06:50:17.446Z,100177.24
2017-11-05T06:52:45.089Z,100174.00
2017-11-05T06:55:12.730Z,100172.13
2017-11-05T06:57:40.388Z,100169.00
2017-11-05T07:00:08.011Z,100160.69
2017-11-05T07:02:35.652Z,100160.89
2017-11-05T07:05:03.241Z,100164.91
2017-11-05T07:07:30.849Z,100171.22
2017-11-05T07:09:58.480Z,100175.00
2017-11-05T07:12:26.069Z,100172.25
2017-11-05T07:14:53.700Z,100175.74
2017-11-05T07:17:21.299Z,100173.28
2017-11-05T07:19:49.446Z,100170.38
2017-11-05T07:22:17.516Z,100169.91
2017-11-05T07:24:45.167Z,100166.98
2017-11-05T07:27:12.817Z,100165.64
2017-11-05T07:29:40.446Z,100169.98
2017-11-05T07:32:08.041Z,100162.30
2017-11-05T07:34:35.939Z,100168.45
2017-11-05T07:37:03.617Z,100162.05
2017-11-05T07:39:31.242Z,100160.71
2017-11-05T07:41:58.937Z,100164.72
2017-11-05T07:44:26.564Z,100162.02
2017-11-05T07:46:55.121Z,100168.02
2017-11-05T07:49:22.712Z,100163.47
2017-11-05T07:51:50.704Z,100155.41
2017-11-05T07:54:18.336Z,100151.30
2017-11-05T07:56:45.933Z,100143.61
2017-11-05T07:59:13.542Z,100142.78
2017-11-05T08:01:41.260Z,100145.06
2017-11-05T08:04:08.884Z,100150.86
2017-11-05T08:06:36.517Z,100151.89
2017-11-05T08:09:04.160Z,100152.13
2017-11-05T08:11:31.764Z,100159.63
2017-11-05T08:13:59.896Z,100158.17
2017-11-05T08:16:27.514Z,100168.92
2017-11-05T08:18:55.124Z,100151.41
2017-11-05T08:21:22.783Z,100144.78
2017-11-05T08:23:50.379Z,100142.38
2017-11-05T08:26:18.021Z,100139.00
2017-11-05T08:28:45.627Z,100128.89
2017-11-05T08:31:13.658Z,100129.72
2017-11-05T08:33:41.345Z,100125.20
2017-11-05T08:36:09.009Z,100121.80
2017-11-05T08:38:37.650Z,100120.88
2017-11-05T08:41:05.718Z,100120.56
2017-11-05T08:43:33.836Z,100120.93
2017-11-05T08:46:01.591Z,100117.57
2017-11-05T08:48:29.212Z,100121.42
2017-11-05T08:50:56.862Z,100119.72
2017-11-05T08:53:24.541Z,100123.72
2017-11-05T08:55:52.311Z,100120.83
2017-11-05T08:58:19.947Z,100116.36
2017-11-05T09:00:47.612Z,100115.77
2017-11-05T09:03:15.294Z,100122.17
2017-11-05T09:05:42.924Z,100117.47
2017-11-05T09:08:10.562Z,100114.11
2017-11-05T09:10:38.224Z,100108.05
2017-11-05T09:13:05.854Z,100110.09
2017-11-05T09:15:33.617Z,100104.47
2017-11-05T09:18:01.272Z,100111.30
2017-11-05T09:20:29.607Z,100113.30
2017-11-05T09:22:57.417Z,100107.30
2017-11-05T09:25:25.023Z,100101.34
2017-11-05T09:27:53.763Z,100096.31
2017-11-05T09:30:25.433Z,100103.02
2017-11-05T09:32:53.852Z,100100.64
2017-11-05T09:35:24.490Z,100105.03
2017-11-05T09:37:52.467Z,100099.50
2017-11-05T09:40:23.735Z,100101.49
2017-11-05T09:42:51.357Z,100096.08
2017-11-05T09:45:22.580Z,100093.84
2017-11-05T09:47:50.318Z,100097.02
2017-11-05T09:50:17.991Z,100087.77
2017-11-05T09:52:45.651Z,100091.07
2017-11-05T09:55:13.253Z,100089.33
2017-11-05T09:57:40.912Z,100087.90
2017-11-05T10:00:08.577Z,100083.22
2017-11-05T10:02:36.182Z,100079.94
2017-11-05T10:05:04.291Z,100072.36
2017-11-05T10:07:31.897Z,100077.41
2017-11-05T10:09:59.557Z,100076.60
2017-11-05T10:12:28.181Z,100078.55
2017-11-05T10:14:56.154Z,100082.47
2017-11-05T10:17:23.800Z,100076.51
2017-11-05T10:19:51.476Z,100067.47
2017-11-05T10:22:19.152Z,100062.01
2017-11-05T10:24:46.832Z,100065.70
2017-11-05T10:27:14.446Z,100066.00
2017-11-05T10:29:42.102Z,100072.49
2017-11-05T10:32:09.721Z,100070.66
2017-11-05T10:34:37.379Z,100067.87
2017-11-05T10:37:04.992Z,100084.44
2017-11-05T10:39:32.633Z,100083.31
2017-11-05T10:42:00.526Z,100086.49
2017-11-05T10:44:28.185Z,100078.27
2017-11-05T10:46:55.845Z,100080.53
2017-11-05T10:49:23.526Z,100087.93
2017-11-05T10:51:51.510Z,100081.66
2017-11-05T10:54:19.141Z,100073.31
2017-11-05T10:56:46.737Z,100075.38
2017-11-05T10:59:14.407Z,100072.39
2017-11-05T11:01:42.059Z,100082.27
2017-11-05T11:04:09.684Z,100086.91
2017-11-05T11:06:37.345Z,100099.05
2017-11-05T11:09:05.039Z,100102.34
2017-11-05T11:11:32.688Z,100098.42
2017-11-05T11:14:00.330Z,100100.81
2017-11-05T11:16:27.993Z,100105.95
2017-11-05T11:18:55.650Z,100103.08
2017-11-05T11:21:23.324Z,100103.28
2017-11-05T11:23:51.317Z,100095.36
2017-11-05T11:26:19.516Z,100091.84
2017-11-05T11:28:47.376Z,100089.59
2017-11-05T11:31:14.997Z,100087.42
2017-11-05T11:33:42.646Z,100085.38
2017-11-05T11:36:10.339Z,100085.36
2017-11-05T11:38:37.945Z,100087.53
2017-11-05T11:41:05.584Z,100087.72
2017-11-05T11:43:33.230Z,100074.63
2017-11-05T11:46:00.824Z,100072.66
2017-11-05T11:48:28.695Z,100067.92
2017-11-05T11:50:56.469Z,100072.03
2017-11-05T11:53:24.101Z,100069.05
2017-11-05T11:55:51.755Z,100062.77
2017-11-05T11:58:19.424Z,100070.67
2017-11-05T12:00:47.082Z,100065.22
2017-11-05T12:03:14.782Z,100065.60
2017-11-05T12:05:42.407Z,100057.58
2017-11-05T12:08:10.066Z,100059.38
2017-11-05T12:10:37.665Z,100054.02
2017-11-05T12:13:05.325Z,100051.11
2017-11-05T12:15:32.942Z,100052.86
2017-11-05T12:18:01.083Z,100045.48
2017-11-05T12:20:29.141Z,100050.56
2017-11-05T12:22:56.950Z,100037.37
2017-11-05T12:25:24.678Z,100044.33
2017-11-05T12:27:52.279Z,100052.27
2017-11-05T12:30:20.001Z,100047.22
2017-11-05T12:32:47.644Z,100044.37
2017-11-05T12:35:15.242Z,100036.52
2017-11-05T12:37:42.885Z,100034.46
2017-11-05T12:40:10.555Z,100027.84
2017-11-05T12:42:38.210Z,100030.44
2017-11-05T12:45:05.872Z,100035.64
2017-11-05T12:47:33.733Z,100035.73
2017-11-05T12:50:01.400Z,100029.95
2017-11-05T12:52:29.008Z,100033.52
2017-11-05T12:54:56.625Z,100033.47
2017-11-05T12:57:24.264Z,100028.31
2017-11-05T12:59:51.889Z,100028.84
2017-11-05T13:02:19.545Z,100024.62
2017-11-05T13:04:47.469Z,100034.16
2017-11-05T13:07:15.061Z,100034.28
2017-11-05T13:09:42.692Z,100026.69
2017-11-05T13:12:10.319Z,100028.03
2017-11-05T13:14:38.019Z,100029.04
2017-11-05T13:17:05.649Z,100035.98
2017-11-05T13:19:33.261Z,100047.47
2017-11-05T13:22:00.883Z,100039.33
2017-11-05T13:24:28.471Z,100045.54
2017-11-05T13:26:56.127Z,100040.77
2017-11-05T13:29:24.200Z,100043.89
2017-11-05T13:31:51.801Z,100040.08
2017-11-05T13:34:19.419Z,100045.34
2017-11-05T13:36:47.029Z,100050.83
2017-11-05T13:39:14.958Z,100050.21
2017-11-05T13:41:42.615Z,100049.93
2017-11-05T13:44:10.272Z,100054.67
2017-11-05T13:46:37.919Z,100045.16
2017-11-05T13:49:05.517Z,100044.16
2017-11-05T13:51:33.471Z,100053.71
2017-11-05T13:54:01.091Z,100063.40
2017-11-05T13:56:29.001Z,100060.72
2017-11-05T13:58:56.624Z,100057.11
2017-11-05T14:01:24.224Z,100060.31
2017-11-05T14:03:51.897Z,100070.23
2017-11-05T14:06:19.500Z,100061.58
2017-11-05T14:08:47.421Z,100062.39
2017-11-05T14:11:15.082Z,100059.82
2017-11-05T14:13:42.745Z,100059.23
2017-11-05T14:16:10.396Z,100065.10
2017-11-05T14:18:38.018Z,100068.39
2017-11-05T14:21:05.674Z,100067.64
2017-11-05T14:23:33.346Z,100067.23
2017-11-05T14:26:02.862Z,100072.83
2017-11-05T14:28:30.878Z,100076.53
2017-11-05T14:30:58.678Z,100078.38
2017-11-05T14:33:26.334Z,100076.94
2017-11-05T14:35:54.039Z,100074.98
2017-11-05T14:38:22.477Z,100081.67
2017-11-05T14:40:51.804Z,100075.70
2017-11-05T14:43:21.786Z,100079.41
2017-11-05T14:45:49.749Z,100086.31
2017-11-05T14:48:18.040Z,100086.75
2017-11-05T14:50:45.680Z,100088.19
2017-11-05T14:53:13.360Z,100091.48
2017-11-05T14:55:41.022Z,100095.49
2017-11-05T14:58:08.672Z,100102.00
2017-11-05T15:00:36.339Z,100102.83
2017-11-05T15:03:03.957Z,100102.41
2017-11-05T15:05:31.753Z,100104.27
2017-11-05T15:07:59.392Z,100102.61
2017-11-05T15:10:27.000Z,100101.99
2017-11-05T15:12:54.658Z,100106.66
2017-11-05T15:15:22.630Z,100102.33
2017-11-05T15:17:50.349Z,100105.82
2017-11-05T15:20:17.980Z,100116.66
2017-11-05T15:22:45.613Z,100118.09
2017-11-05T15:25:13.272Z,100115.20
2017-11-05T15:27:40.924Z,100124.46
2017-11-05T15:30:08.594Z,100129.01
2017-11-05T15:32:36.238Z,100133.22
2017-11-05T15:35:03.888Z,100143.01
2017-11-05T15:37:31.542Z,100139.80
2017-11-05T15:39:59.513Z,100137.88
2017-11-05T15:42:27.168Z,100135.18
2017-11-05T15:44:55.009Z,100131.67
2017-11-05T15:47:22.674Z,100138.98
2017-11-05T15:49:50.382Z,100142.17
2017-11-05T15:52:17.982Z,100140.84
2017-11-05T15:54:45.617Z,100147.33
2017-11-05T15:57:13.241Z,100155.03
2017-11-05T15:59:41.166Z,100157.08
2017-11-05T16:02:08.804Z,100159.16
2017-11-05T16:04:36.499Z,100164.30
2017-11-05T16:07:04.128Z,100173.03
2017-11-05T16:09:31.766Z,100179.21
2017-11-05T16:11:59.421Z,100181.79
2017-11-05T16:14:27.015Z,100178.48
2017-11-05T16:16:54.656Z,100179.42
2017-11-05T16:19:22.281Z,100182.09
2017-11-05T16:21:49.915Z,100184.16
2017-11-05T16:24:17.626Z,100181.05
2017-11-05T16:26:45.241Z,100191.02
2017-11-05T16:29:12.879Z,100192.55
2017-11-05T16:31:40.541Z,100202.14
2017-11-05T16:34:08.195Z,100217.27
2017-11-05T16:36:35.862Z,100222.30
2017-11-05T16:39:03.558Z,100219.47
2017-11-05T16:41:31.271Z,100237.05
2017-11-05T16:43:59.212Z,100248.66
2017-11-05T16:46:26.818Z,100253.47
2017-11-05T16:48:54.529Z,100255.86
2017-11-05T16:51:22.501Z,100264.07
2017-11-05T16:53:50.090Z,100272.33
2017-11-05T16:56:17.768Z,100279.16
2017-11-05T16:58:45.371Z,100279.06
2017-11-05T17:01:13.035Z,100288.23
2017-11-05T17:03:40.654Z,100297.86
2017-11-05T17:06:08.581Z,100307.20
2017-11-05T17:08:36.549Z,100322.08
2017-11-05T17:11:04.150Z,100333.55
2017-11-05T17:13:31.854Z,100317.56
2017-11-05T17:15:59.741Z,100317.44
2017-11-05T17:18:27.727Z,100325.89
2017-11-05T17:20:55.417Z,100329.73
2017-11-05T17:23:23.051Z,100334.56
2017-11-05T17:25:51.560Z,100339.49
2017-11-05T17:28:19.195Z,100344.38
2017-11-05T17:30:46.809Z,100353.05
2017-11-05T17:33:14.444Z,100344.12
2017-11-05T17:35:42.126Z,100348.09
2017-11-05T17:38:09.837Z,100358.91
2017-11-05T17:40:37.715Z,100364.66
2017-11-05T17:43:05.397Z,100368.38
2017-11-05T17:45:33.077Z,100381.41
2017-11-05T17:48:00.757Z,100389.69
2017-11-05T17:50:28.385Z,100396.64
2017-11-05T17:52:56.022Z,100396.64
2017-11-05T17:55:23.649Z,100395.49
2017-11-05T17:57:51.312Z,100400.23
2017-11-05T18:00:19.435Z,100398.06
2017-11-05T18:02:47.097Z,100402.16
2017-11-05T18:05:14.762Z,100403.61
2017-11-05T18:07:42.369Z,100403.81
2017-11-05T18:10:10.070Z,100414.42
2017-11-05T18:12:37.688Z,100420.27
2017-11-05T18:15:05.400Z,100424.98
2017-11-05T18:17:33.294Z,100426.73
2017-11-05T18:20:00.921Z,100432.99
2017-11-05T18:22:29.233Z,100437.75
2017-11-05T18:24:56.866Z,100442.00
2017-11-05T18:27:24.643Z,100439.94
2017-11-05T18:29:52.288Z,100441.54
2017-11-05T18:32:19.952Z,100443.97
2017-11-05T18:34:47.592Z,100448.44
2017-11-05T18:37:15.188Z,100448.36
2017-11-05T18:39:45.313Z,100457.88
2017-11-05T18:42:12.995Z,100458.48
2017-11-05T18:44:40.638Z,100462.98
2017-11-05T18:47:08.284Z,100459.38
2017-11-05T18:49:36.599Z,100466.25
2017-11-05T18:52:04.224Z,100465.24
2017-11-05T18:54:31.824Z,100465.33
2017-11-05T18:56:59.465Z,100468.63
2017-11-05T18:59:27.164Z,100477.73
2017-11-05T19:01:54.801Z,100484.75
2017-11-05T19:04:22.437Z,100492.93
2017-11-05T19:06:50.029Z,100497.83
2017-11-05T19:09:17.628Z,100501.05
2017-11-05T19:11:45.317Z,100509.23
2017-11-05T19:14:12.931Z,100511.40
2017-11-05T19:16:41.267Z,100513.33
2017-11-05T19:19:08.882Z,100520.17
2017-11-05T19:21:36.479Z,100526.69
2017-11-05T19:24:04.101Z,100526.66
2017-11-05T19:26:31.736Z,100529.73
2017-11-05T19:28:59.694Z,100534.06
2017-11-05T19:31:27.279Z,100533.06
2017-11-05T19:33:54.864Z,100530.24
2017-11-05T19:36:22.506Z,100537.73
2017-11-05T19:38:50.145Z,100539.73
2017-11-05T19:41:17.772Z,100543.44
2017-11-05T19:43:45.373Z,100550.61
2017-11-05T19:46:12.973Z,100554.44
2017-11-05T19:48:40.597Z,100566.52
2017-11-05T19:51:08.458Z,100570.08
2017-11-05T19:53:36.084Z,100573.28
2017-11-05T19:56:03.671Z,100573.70
2017-11-05T19:58:31.268Z,100584.03
2017-11-05T20:03:32.673Z,100587.09
2017-11-05T20:06:00.592Z,100589.75
2017-11-05T20:08:28.188Z,100589.16
2017-11-05T20:10:55.809Z,100591.62
2017-11-05T20:13:23.679Z,100594.08
2017-11-05T20:15:51.280Z,100591.09
2017-11-05T20:18:18.932Z,100592.27
2017-11-05T20:20:46.524Z,100592.44
2017-11-05T20:23:14.433Z,100587.11
2017-11-05T20:25:42.074Z,100590.76
2017-11-05T20:28:09.672Z,100600.75
2017-11-05T20:30:37.300Z,100601.84
2017-11-05T20:33:04.934Z,100596.84
2017-11-05T20:35:32.658Z,100596.37
2017-11-05T20:38:00.306Z,100596.45
2017-11-05T20:40:27.975Z,100599.50
2017-11-05T20:42:55.944Z,100605.38
2017-11-05T20:45:23.568Z,100606.09
2017-11-05T20:47:51.196Z,100606.27
2017-11-05T20:50:18.830Z,100605.25
2017-11-05T20:52:46.475Z,100612.17
2017-11-05T20:55:14.139Z,100618.50
2017-11-05T20:57:41.729Z,100619.75
2017-11-05T21:00:10.196Z,100614.83
2017-11-05T21:02:38.062Z,100618.92
2017-11-05T21:05:05.643Z,100625.30
2017-11-05T21:07:33.277Z,100623.97
2017-11-05T21:10:00.872Z,100632.67
2017-11-05T21:12:28.815Z,100631.59
2017-11-05T21:14:56.447Z,100630.35
2017-11-05T21:17:24.046Z,100634.30
2017-11-05T21:19:51.682Z,100634.92
2017-11-05T21:22:19.577Z,100631.02
2017-11-05T21:24:47.188Z,100627.27
2017-11-05T21:27:14.817Z,100626.02
2017-11-05T21:29:42.444Z,100622.86
2017-11-05T21:32:10.103Z,100632.61
2017-11-05T21:34:37.770Z,100633.70
2017-11-05T21:37:05.370Z,100643.03
2017-11-05T21:39:33.092Z,100645.70
2017-11-05T21:42:00.854Z,100645.33
2017-11-05T21:44:28.507Z,100642.09
2017-11-05T21:46:56.099Z,100652.70
2017-11-05T21:49:23.728Z,100659.61
2017-11-05T21:51:51.343Z,100660.54
2017-11-05T21:54:18.937Z,100664.16
2017-11-05T21:56:46.568Z,100665.70
2017-11-05T21:59:14.155Z,100673.78
2017-11-05T22:01:41.794Z,100674.45
2017-11-05T22:04:09.419Z,100670.53
2017-11-05T22:06:37.036Z,100674.61
2017-11-05T22:09:04.673Z,100678.87
2017-11-05T22:11:32.274Z,100680.20
2017-11-05T22:13:59.894Z,100678.03
2017-11-05T22:16:27.506Z,100677.69
2017-11-05T22:18:55.095Z,100679.33
2017-11-05T22:21:22.732Z,100684.34
2017-11-05T22:23:50.338Z,100692.34
2017-11-05T22:26:18.302Z,100697.42
2017-11-05T22:28:45.944Z,100698.09
2017-11-05T22:31:13.572Z,100710.17
2017-11-05T22:33:41.205Z,100710.34
2017-11-05T22:36:08.800Z,100716.01
2017-11-05T22:38:36.388Z,100720.52
2017-11-05T22:41:04.008Z,100724.59
2017-11-05T22:43:31.944Z,100731.34
2017-11-05T22:45:59.569Z,100729.51
2017-11-05T22:48:27.176Z,100730.30
2017-11-05T22:50:54.772Z,100730.72
2017-11-05T22:53:22.423Z,100727.22
2017-11-05T22:55:50.007Z,100727.38
2017-11-05T22:58:18.027Z,100723.42
2017-11-05T23:00:45.616Z,100730.59
2017-11-05T23:03:13.252Z,100732.59
2017-11-05T23:05:40.884Z,100732.31
2017-11-05T23:08:08.511Z,100734.39
2017-11-05T23:10:36.102Z,100743.94
2017-11-05T23:13:03.753Z,100745.98
2017-11-05T23:15:31.672Z,100756.06
2017-11-05T23:17:59.268Z,100758.02
2017-11-05T23:20:26.906Z,100757.40
2017-11-05T23:22:54.507Z,100766.61
2017-11-05T23:25:22.127Z,100767.44
2017-11-05T23:27:49.756Z,100771.11
2017-11-05T23:30:17.337Z,100776.61
2017-11-05T23:32:44.969Z,100778.36
2017-11-05T23:35:12.558Z,100780.02
2017-11-05T23:37:40.162Z,100789.02
2017-11-05T23:40:07.792Z,100795.02
2017-11-05T23:42:35.377Z,100798.02
2017-11-05T23:45:03.021Z,100798.94
2017-11-05T23:47:30.874Z,100807.02
2017-11-05T23:49:58.519Z,100813.05
2017-11-05T23:52:26.163Z,100818.13
2017-11-05T23:54:53.755Z,100819.72
2017-11-05T23:57:21.393Z,100825.46
2017-11-05T23:59:48.988Z,100827.71
